Time;durP1;ratioP1;P1;durP2;ratioP2;P2;SDS_P1;SDS_P2;PMS_P1;PMS_P2;Temp;Humidity;BMP_temperature;BMP_pressure;BME280_temperature;BME280_humidity;BME280_pressure;Samples;Min_cycle;Max_cycle;Signal;HPM_P1;HPM_P2
2021/09/08 00:00:04;;;;;;;3.83;3.53;;;;;;;;;;5014435;28;20223;-80
2021/09/08 00:02:32;;;;;;;5.40;3.75;;;;;;;;;;5014097;28;20708;-80
2021/09/08 00:05:01;;;;;;;4.15;3.75;;;;;;;;;;5014134;28;20207;-80
2021/09/08 00:07:28;;;;;;;4.07;3.42;;;;;;;;;;5013839;28;20203;-80
2021/09/08 00:09:56;;;;;;;3.67;3.38;;;;;;;;;;5014144;28;20226;-80
2021/09/08 00:12:23;;;;;;;4.47;4.07;;;;;;;;;;5014468;28;20214;-80
2021/09/08 00:14:50;;;;;;;4.55;3.42;;;;;;;;;;5014038;28;20188;-80
2021/09/08 00:17:18;;;;;;;3.80;3.50;;;;;;;;;;5014100;28;20217;-80
2021/09/08 00:19:45;;;;;;;4.57;4.20;;;;;;;;;;5013893;28;20223;-80
2021/09/08 00:22:14;;;;;;;3.80;3.42;;;;;;;;;;5013997;28;20187;-80
2021/09/08 00:24:42;;;;;;;4.43;4.03;;;;;;;;;;5013963;28;20222;-80
2021/09/08 00:27:10;;;;;;;4.85;4.05;;;;;;;;;;5013040;28;20199;-80
2021/09/08 00:29:37;;;;;;;3.90;3.50;;;;;;;;;;5013396;28;20619;-80
2021/09/08 00:32:05;;;;;;;5.50;4.07;;;;;;;;;;5013592;28;20209;-80
2021/09/08 00:34:33;;;;;;;4.05;3.75;;;;;;;;;;5013771;28;20207;-80
2021/09/08 00:37:00;;;;;;;6.57;4.78;;;;;;;;;;5013432;28;20194;-80
2021/09/08 00:39:29;;;;;;;3.65;3.35;;;;;;;;;;5013239;28;20223;-80
2021/09/08 00:41:57;;;;;;;4.50;3.85;;;;;;;;;;5013657;28;20213;-80
2021/09/08 00:44:26;;;;;;;4.30;3.85;;;;;;;;;;5013397;28;20203;-80
2021/09/08 00:46:54;;;;;;;5.95;4.32;;;;;;;;;;5013408;28;20210;-80
2021/09/08 00:49:22;;;;;;;4.32;3.92;;;;;;;;;;5012923;28;20231;-80
2021/09/08 00:51:49;;;;;;;4.50;3.67;;;;;;;;;;5012228;28;20199;-79
2021/09/08 00:54:19;;;;;;;5.90;4.28;;;;;;;;;;5013318;28;20278;-80
2021/09/08 00:56:50;;;;;;;4.60;4.20;;;;;;;;;;5013400;28;20191;-80
2021/09/08 00:59:18;;;;;;;4.53;3.80;;;;;;;;;;5013013;28;20728;-79
2021/09/08 01:01:45;;;;;;;4.40;4.00;;;;;;;;;;5013028;28;20187;-80
2021/09/08 01:04:13;;;;;;;4.63;4.22;;;;;;;;;;5012855;28;20210;-80
2021/09/08 01:06:41;;;;;;;5.20;4.50;;;;;;;;;;5012810;28;20289;-80
2021/09/08 01:09:09;;;;;;;5.80;4.47;;;;;;;;;;5012839;28;20222;-79
2021/09/08 01:11:37;;;;;;;7.00;4.72;;;;;;;;;;5013038;28;20277;-80
2021/09/08 01:14:06;;;;;;;4.50;3.95;;;;;;;;;;5013201;28;20187;-80
2021/09/08 01:16:33;;;;;;;5.50;5.00;;;;;;;;;;5013047;28;20210;-79
2021/09/08 01:19:01;;;;;;;4.90;4.40;;;;;;;;;;5012753;28;20595;-80
2021/09/08 01:21:28;;;;;;;4.35;3.95;;;;;;;;;;5011946;28;20207;-80
2021/09/08 01:24:03;;;;;;;5.20;4.10;;;;;;;;;;5012656;28;20641;-80
2021/09/08 01:26:30;;;;;;;4.60;4.18;;;;;;;;;;5012763;28;20209;-80
2021/09/08 01:28:58;;;;;;;4.32;3.92;;;;;;;;;;5012556;28;20222;-81
2021/09/08 01:31:27;;;;;;;4.35;3.95;;;;;;;;;;5012282;28;20230;-79
2021/09/08 01:33:55;;;;;;;4.97;4.50;;;;;;;;;;5013842;28;20727;-79
2021/09/08 01:36:22;;;;;;;4.38;3.97;;;;;;;;;;5013187;28;20202;-79
2021/09/08 01:38:49;;;;;;;4.57;4.15;;;;;;;;;;4995177;28;20227;-79
2021/09/08 01:41:18;;;;;;;4.72;4.22;;;;;;;;;;4993986;28;20205;-79
2021/09/08 01:43:46;;;;;;;4.60;3.88;;;;;;;;;;4993196;28;20227;-79
2021/09/08 01:46:20;;;;;;;4.85;4.35;;;;;;;;;;4993779;28;20187;-79
2021/09/08 01:48:47;;;;;;;4.78;4.28;;;;;;;;;;5018485;23;20629;-83
2021/09/08 01:51:15;;;;;;;4.30;3.90;;;;;;;;;;5028597;28;20227;-84
2021/09/08 01:53:43;;;;;;;5.40;4.90;;;;;;;;;;5018946;28;20203;-82
2021/09/08 01:56:11;;;;;;;8.43;7.63;;;;;;;;;;5009845;28;20186;-83
2021/09/08 01:58:40;;;;;;;6.45;5.85;;;;;;;;;;5029931;28;20190;-83
2021/09/08 02:01:07;;;;;;;4.97;4.57;;;;;;;;;;5009763;28;20180;-82
2021/09/08 02:03:34;;;;;;;4.85;4.35;;;;;;;;;;5013095;28;20191;-85
2021/09/08 02:06:18;;;;;;;4.55;4.10;;;;;;;;;;5010241;28;20219;-83
2021/09/08 02:08:46;;;;;;;5.25;4.75;;;;;;;;;;5010080;28;20564;-85
2021/09/08 02:11:13;;;;;;;6.22;4.38;;;;;;;;;;4990187;28;20211;-85
2021/09/08 02:13:42;;;;;;;4.75;4.35;;;;;;;;;;4989177;28;20203;-83
2021/09/08 02:16:10;;;;;;;4.63;4.22;;;;;;;;;;4997673;28;20575;-85
2021/09/08 02:18:37;;;;;;;4.82;4.30;;;;;;;;;;4995090;28;20666;-84
2021/09/08 02:21:05;;;;;;;4.25;3.85;;;;;;;;;;4990218;28;20583;-84
2021/09/08 02:23:32;;;;;;;5.70;4.03;;;;;;;;;;4990553;28;20192;-84
2021/09/08 02:26:00;;;;;;;4.28;3.88;;;;;;;;;;4990442;28;20204;-84
2021/09/08 02:28:27;;;;;;;4.88;4.47;;;;;;;;;;4993666;28;20199;-84
2021/09/08 02:30:56;;;;;;;6.47;4.10;;;;;;;;;;5009676;28;20712;-86
2021/09/08 02:33:24;;;;;;;4.47;4.07;;;;;;;;;;5009674;28;20556;-84
2021/09/08 02:35:53;;;;;;;4.25;3.80;;;;;;;;;;5009679;28;20195;-84
2021/09/08 02:38:20;;;;;;;4.60;4.22;;;;;;;;;;4993994;28;20196;-85
2021/09/08 02:40:48;;;;;;;4.15;3.80;;;;;;;;;;4990248;28;20239;-85
2021/09/08 02:43:15;;;;;;;6.22;5.35;;;;;;;;;;4989767;28;20191;-85
2021/09/08 02:45:43;;;;;;;4.40;4.00;;;;;;;;;;4991362;28;20196;-85
2021/09/08 02:48:12;;;;;;;4.07;3.67;;;;;;;;;;5009248;28;20207;-85
2021/09/08 02:50:39;;;;;;;5.53;4.15;;;;;;;;;;5010442;28;20239;-85
2021/09/08 02:53:06;;;;;;;5.30;4.80;;;;;;;;;;5013319;28;20188;-86
2021/09/08 02:55:34;;;;;;;5.15;4.68;;;;;;;;;;5012753;28;20183;-84
2021/09/08 02:58:01;;;;;;;5.30;4.72;;;;;;;;;;5013290;28;20183;-82
2021/09/08 03:00:29;;;;;;;4.68;4.18;;;;;;;;;;5013681;28;20230;-85
2021/09/08 03:02:56;;;;;;;4.72;4.28;;;;;;;;;;5009497;28;20216;-85
2021/09/08 03:05:25;;;;;;;5.47;4.97;;;;;;;;;;4993059;28;20215;-86
2021/09/08 03:07:53;;;;;;;4.68;3.90;;;;;;;;;;4993502;28;20666;-86
2021/09/08 03:10:20;;;;;;;4.10;3.80;;;;;;;;;;5011172;28;20219;-83
2021/09/08 03:12:48;;;;;;;5.82;4.45;;;;;;;;;;5012937;28;20211;-85
2021/09/08 03:15:15;;;;;;;4.90;4.43;;;;;;;;;;5012662;28;20210;-85
2021/09/08 03:17:43;;;;;;;5.90;4.15;;;;;;;;;;5013026;28;20696;-84
2021/09/08 03:20:11;;;;;;;4.75;4.35;;;;;;;;;;5013342;28;20743;-83
2021/09/08 03:22:41;;;;;;;4.50;4.07;;;;;;;;;;5012958;28;20187;-84
2021/09/08 03:25:10;;;;;;;5.05;4.55;;;;;;;;;;5012830;28;20187;-84
2021/09/08 03:27:40;;;;;;;5.57;5.10;;;;;;;;;;5012638;28;20191;-84
2021/09/08 03:30:09;;;;;;;5.75;5.00;;;;;;;;;;5012835;28;20234;-84
2021/09/08 03:32:37;;;;;;;5.60;4.57;;;;;;;;;;5012792;28;20211;-84
2021/09/08 03:35:05;;;;;;;5.53;4.32;;;;;;;;;;5012469;28;20195;-84
2021/09/08 03:37:33;;;;;;;4.00;3.60;;;;;;;;;;5012630;28;20179;-83
2021/09/08 03:40:02;;;;;;;5.75;5.00;;;;;;;;;;5012759;28;20595;-85
2021/09/08 03:42:29;;;;;;;6.18;5.05;;;;;;;;;;5013181;28;20192;-83
2021/09/08 03:44:57;;;;;;;5.07;4.60;;;;;;;;;;5012674;28;20184;-85
2021/09/08 03:47:27;;;;;;;4.45;4.00;;;;;;;;;;5012568;28;20218;-86
2021/09/08 03:49:54;;;;;;;4.78;4.00;;;;;;;;;;5012281;28;20239;-85
2021/09/08 03:52:21;;;;;;;4.60;4.20;;;;;;;;;;5012541;28;20217;-84
2021/09/08 03:54:49;;;;;;;4.80;4.25;;;;;;;;;;5011700;28;20206;-82
2021/09/08 03:57:18;;;;;;;4.82;4.32;;;;;;;;;;5012233;28;20199;-84
2021/09/08 03:59:45;;;;;;;4.65;4.25;;;;;;;;;;5012346;28;20233;-85
2021/09/08 04:02:13;;;;;;;5.63;5.00;;;;;;;;;;5012573;28;20188;-82
2021/09/08 04:04:40;;;;;;;4.55;4.15;;;;;;;;;;5011784;28;20685;-82
2021/09/08 04:07:09;;;;;;;4.43;4.03;;;;;;;;;;5012219;28;20179;-85
2021/09/08 04:09:36;;;;;;;4.95;4.45;;;;;;;;;;5011964;28;20227;-83
2021/09/08 04:12:04;;;;;;;4.93;4.43;;;;;;;;;;5012723;28;20230;-84
2021/09/08 04:14:33;;;;;;;4.78;4.30;;;;;;;;;;5012187;28;20206;-84
2021/09/08 04:17:01;;;;;;;6.75;4.63;;;;;;;;;;5012873;28;20567;-84
2021/09/08 04:19:29;;;;;;;4.75;4.25;;;;;;;;;;5012343;28;20218;-83
2021/09/08 04:21:56;;;;;;;5.65;4.40;;;;;;;;;;5009537;28;20202;-83
2021/09/08 04:24:24;;;;;;;5.22;4.40;;;;;;;;;;4996465;28;20195;-83
2021/09/08 04:26:51;;;;;;;8.10;6.20;;;;;;;;;;5014757;28;20207;-83
2021/09/08 04:29:18;;;;;;;6.80;5.72;;;;;;;;;;5011638;28;20211;-84
2021/09/08 04:31:47;;;;;;;8.15;6.18;;;;;;;;;;5010825;28;20199;-83
2021/09/08 04:34:15;;;;;;;5.70;5.20;;;;;;;;;;5011753;28;20665;-83
2021/09/08 04:36:42;;;;;;;5.47;4.72;;;;;;;;;;5011138;28;20194;-83
2021/09/08 04:39:10;;;;;;;4.57;4.18;;;;;;;;;;5011841;28;20229;-83
2021/09/08 04:41:37;;;;;;;5.63;5.03;;;;;;;;;;5011858;28;20208;-83
2021/09/08 04:44:05;;;;;;;5.65;5.05;;;;;;;;;;5011851;28;20184;-84
2021/09/08 04:46:32;;;;;;;6.35;4.70;;;;;;;;;;5011583;28;20191;-84
2021/09/08 04:49:01;;;;;;;4.53;4.13;;;;;;;;;;5011128;28;20198;-84
2021/09/08 04:51:29;;;;;;;5.25;4.47;;;;;;;;;;5011165;28;20182;-84
2021/09/08 04:53:56;;;;;;;5.72;5.13;;;;;;;;;;5010308;28;20325;-83
2021/09/08 04:56:23;;;;;;;5.10;4.60;;;;;;;;;;5011454;28;20187;-83
2021/09/08 04:58:51;;;;;;;5.93;5.43;;;;;;;;;;5004480;28;20188;-84
2021/09/08 05:01:18;;;;;;;5.05;4.57;;;;;;;;;;4992149;28;20191;-83
2021/09/08 05:03:46;;;;;;;5.65;5.15;;;;;;;;;;4991759;28;20195;-83
2021/09/08 05:06:15;;;;;;;5.03;4.55;;;;;;;;;;4991294;28;20203;-83
2021/09/08 05:08:42;;;;;;;5.13;4.63;;;;;;;;;;4996269;28;20206;-83
2021/09/08 05:11:10;;;;;;;6.03;5.38;;;;;;;;;;5011279;28;20684;-84
2021/09/08 05:13:37;;;;;;;6.70;6.03;;;;;;;;;;5010087;28;20218;-84
2021/09/08 05:16:07;;;;;;;5.22;4.72;;;;;;;;;;5010805;28;20198;-84
2021/09/08 05:18:37;;;;;;;5.38;4.88;;;;;;;;;;5011499;28;20195;-83
2021/09/08 05:21:04;;;;;;;7.13;5.90;;;;;;;;;;5011576;28;20258;-83
2021/09/08 05:23:33;;;;;;;6.97;4.93;;;;;;;;;;4999794;28;20196;-84
2021/09/08 05:26:01;;;;;;;5.05;4.57;;;;;;;;;;5003047;28;20207;-84
2021/09/08 05:28:29;;;;;;;4.97;4.57;;;;;;;;;;5013404;28;20188;-85
2021/09/08 05:30:57;;;;;;;4.60;4.15;;;;;;;;;;5001296;28;20215;-85
2021/09/08 05:33:28;;;;;;;4.88;4.45;;;;;;;;;;5012420;28;20210;-85
2021/09/08 05:35:55;;;;;;;6.60;5.40;;;;;;;;;;5012190;28;20226;-85
2021/09/08 05:38:23;;;;;;;5.85;4.55;;;;;;;;;;5011979;28;20567;-85
2021/09/08 05:40:53;;;;;;;6.28;5.03;;;;;;;;;;5011234;28;20599;-85
2021/09/08 05:43:30;;;;;;;4.05;3.75;;;;;;;;;;4994002;28;20290;-84
2021/09/08 05:45:58;;;;;;;6.15;4.28;;;;;;;;;;4991818;28;20198;-86
2021/09/08 05:48:25;;;;;;;5.13;4.55;;;;;;;;;;4997586;28;20215;-86
2021/09/08 05:50:55;;;;;;;4.25;3.85;;;;;;;;;;5005945;28;20243;-86
2021/09/08 05:56:43;;;;;;;3.20;3.00;;;;;;;;;;5001140;28;20197;-85
2021/09/08 05:59:10;;;;;;;3.50;3.20;;;;;;;;;;5001405;28;20220;-85
2021/09/08 06:01:38;;;;;;;6.03;3.88;;;;;;;;;;4993183;28;20203;-84
2021/09/08 06:04:05;;;;;;;4.53;4.13;;;;;;;;;;4993316;28;20573;-85
2021/09/08 06:06:35;;;;;;;3.30;3.00;;;;;;;;;;4998543;28;20207;-85
2021/09/08 06:09:02;;;;;;;3.67;3.38;;;;;;;;;;5005479;28;20230;-86
2021/09/08 06:11:32;;;;;;;3.97;3.65;;;;;;;;;;4993122;28;20562;-86
2021/09/08 06:14:01;;;;;;;4.07;3.67;;;;;;;;;;4992629;28;20215;-86
2021/09/08 06:16:31;;;;;;;4.38;3.97;;;;;;;;;;4993027;28;20267;-86
2021/09/08 06:18:59;;;;;;;3.50;3.20;;;;;;;;;;4992431;28;20206;-86
2021/09/08 06:21:26;;;;;;;3.55;3.25;;;;;;;;;;4992766;28;20203;-86
2021/09/08 06:23:54;;;;;;;3.08;2.78;;;;;;;;;;4992500;28;20203;-84
2021/09/08 06:26:27;;;;;;;4.30;3.90;;;;;;;;;;4997176;28;20199;-84
2021/09/08 06:28:55;;;;;;;3.17;2.88;;;;;;;;;;4996356;28;20637;-86
2021/09/08 06:31:24;;;;;;;3.10;2.90;;;;;;;;;;4996009;28;20657;-86
2021/09/08 06:33:53;;;;;;;3.63;3.33;;;;;;;;;;4996101;28;20702;-85
2021/09/08 06:36:23;;;;;;;3.28;2.97;;;;;;;;;;5005549;28;20282;-86
2021/09/08 06:38:50;;;;;;;4.82;4.00;;;;;;;;;;5016071;28;20198;-87
2021/09/08 06:41:28;;;;;;;3.25;2.90;;;;;;;;;;5016058;28;20188;-86
2021/09/08 06:43:56;;;;;;;3.35;3.05;;;;;;;;;;5002991;28;20198;-86
2021/09/08 06:46:25;;;;;;;2.67;2.47;;;;;;;;;;4996630;28;20557;-85
2021/09/08 06:48:53;;;;;;;3.42;2.90;;;;;;;;;;4995738;28;20192;-85
2021/09/08 06:51:21;;;;;;;3.83;3.53;;;;;;;;;;4996170;28;20195;-86
2021/09/08 06:53:55;;;;;;;3.25;3.00;;;;;;;;;;4995715;28;20239;-86
2021/09/08 06:56:23;;;;;;;3.83;3.53;;;;;;;;;;5013366;28;20199;-87
2021/09/08 06:58:50;;;;;;;3.30;3.00;;;;;;;;;;5015258;28;20199;-87
2021/09/08 07:01:19;;;;;;;4.72;3.40;;;;;;;;;;5014434;28;20195;-87
2021/09/08 07:03:49;;;;;;;3.70;3.40;;;;;;;;;;5015841;28;20190;-88
2021/09/08 07:06:28;;;;;;;4.65;4.25;;;;;;;;;;5015937;28;20583;-87
2021/09/08 07:09:49;;;;;;;3.33;3.03;;;;;;;;;;5015729;28;20234;-87
2021/09/08 07:12:30;;;;;;;3.50;3.20;;;;;;;;;;5015598;28;20183;-87
2021/09/08 07:15:04;;;;;;;4.15;3.75;;;;;;;;;;5015241;28;20198;-87
2021/09/08 07:18:25;;;;;;;4.53;3.80;;;;;;;;;;5015085;28;20191;-87
2021/09/08 07:20:59;;;;;;;4.90;4.38;;;;;;;;;;5015442;28;20245;-87
2021/09/08 07:23:37;;;;;;;4.57;4.15;;;;;;;;;;4999636;28;20202;-87
2021/09/08 07:26:16;;;;;;;5.25;4.75;;;;;;;;;;5004505;28;20675;-89
2021/09/08 07:28:46;;;;;;;4.53;4.13;;;;;;;;;;5015386;28;20193;-86
2021/09/08 07:31:15;;;;;;;5.15;4.65;;;;;;;;;;5015373;28;20194;-87
2021/09/08 07:33:47;;;;;;;4.80;4.38;;;;;;;;;;5015393;28;20217;-87
2021/09/08 07:36:28;;;;;;;4.25;3.85;;;;;;;;;;5014143;28;20183;-88
2021/09/08 07:38:58;;;;;;;5.32;4.82;;;;;;;;;;5015314;28;20199;-87
2021/09/08 07:41:31;;;;;;;5.40;4.82;;;;;;;;;;5014896;28;20207;-86
2021/09/08 07:43:58;;;;;;;6.05;5.45;;;;;;;;;;5015082;28;20582;-86
2021/09/08 07:46:33;;;;;;;5.43;4.93;;;;;;;;;;5011546;28;20196;-87
2021/09/08 07:49:16;;;;;;;5.03;4.53;;;;;;;;;;4992676;28;20673;-87
2021/09/08 07:52:35;;;;;;;6.80;5.18;;;;;;;;;;5000044;28;20227;-88
2021/09/08 07:55:12;;;;;;;4.85;4.35;;;;;;;;;;4994922;28;20208;-88
2021/09/08 07:58:07;;;;;;;5.05;4.47;;;;;;;;;;4995386;28;20630;-88
2021/09/08 08:00:41;;;;;;;5.22;4.63;;;;;;;;;;4994848;28;20224;-87
2021/09/08 08:03:49;;;;;;;3.78;3.47;;;;;;;;;;5002622;28;20187;-88
2021/09/08 08:06:52;;;;;;;3.92;3.58;;;;;;;;;;4994870;28;20672;-87
2021/09/08 08:09:33;;;;;;;3.95;3.65;;;;;;;;;;4994796;28;20219;-88
2021/09/08 08:12:19;;;;;;;4.28;3.95;;;;;;;;;;4994780;28;20596;-87
2021/09/08 08:15:10;;;;;;;4.35;3.95;;;;;;;;;;5001367;28;20210;-88
2021/09/08 08:17:50;;;;;;;8.55;4.75;;;;;;;;;;5014207;28;20184;-87
2021/09/08 08:20:20;;;;;;;4.95;4.47;;;;;;;;;;5014258;28;20223;-87
2021/09/08 08:22:57;;;;;;;4.40;4.05;;;;;;;;;;5014476;28;20275;-87
2021/09/08 08:25:28;;;;;;;4.18;3.78;;;;;;;;;;5050595;22;20218;-83
2021/09/08 08:27:56;;;;;;;4.28;3.88;;;;;;;;;;5032757;28;20646;-83
2021/09/08 08:30:24;;;;;;;4.18;3.80;;;;;;;;;;5032887;28;20183;-82
2021/09/08 08:32:52;;;;;;;4.13;3.72;;;;;;;;;;5031522;28;20191;-82
2021/09/08 08:35:19;;;;;;;4.53;4.05;;;;;;;;;;5031222;28;20268;-83
2021/09/08 08:37:48;;;;;;;4.10;3.70;;;;;;;;;;5014766;28;20581;-84
2021/09/08 08:40:17;;;;;;;4.57;4.13;;;;;;;;;;5014684;28;20201;-83
2021/09/08 08:42:46;;;;;;;3.92;3.53;;;;;;;;;;5015405;28;20190;-83
2021/09/08 08:45:25;;;;;;;3.30;2.97;;;;;;;;;;5015250;28;20751;-83
2021/09/08 08:48:21;;;;;;;3.70;3.40;;;;;;;;;;5015240;28;20214;-83
2021/09/08 08:50:55;;;;;;;4.20;3.90;;;;;;;;;;5014045;28;20199;-83
2021/09/08 08:53:30;;;;;;;4.60;4.20;;;;;;;;;;5014510;28;20181;-83
2021/09/08 08:56:51;;;;;;;4.70;4.20;;;;;;;;;;5015046;28;20242;-82
2021/09/08 08:59:19;;;;;;;4.90;3.72;;;;;;;;;;5011706;28;20203;-82
2021/09/08 09:01:47;;;;;;;3.97;3.67;;;;;;;;;;5013432;28;20210;-81
2021/09/08 09:04:17;;;;;;;5.13;4.63;;;;;;;;;;5014315;28;20222;-83
2021/09/08 09:06:49;;;;;;;6.38;5.78;;;;;;;;;;5013656;28;20183;-81
2021/09/08 09:09:18;;;;;;;5.20;4.80;;;;;;;;;;5013933;28;20190;-82
2021/09/08 09:11:49;;;;;;;4.32;4.03;;;;;;;;;;5013219;28;20187;-82
2021/09/08 09:14:19;;;;;;;4.80;4.40;;;;;;;;;;5013102;28;20290;-82
2021/09/08 09:16:47;;;;;;;5.25;4.72;;;;;;;;;;5013765;28;20187;-83
2021/09/08 09:19:15;;;;;;;4.68;4.28;;;;;;;;;;5013857;28;20183;-82
2021/09/08 09:21:43;;;;;;;5.80;4.97;;;;;;;;;;5013147;28;20179;-82
2021/09/08 09:24:11;;;;;;;5.18;4.15;;;;;;;;;;5012354;28;20274;-83
2021/09/08 09:26:41;;;;;;;4.45;4.05;;;;;;;;;;5013992;28;20202;-83
2021/09/08 09:29:11;;;;;;;5.63;5.13;;;;;;;;;;5013115;28;20253;-83
2021/09/08 09:31:53;;;;;;;5.32;4.93;;;;;;;;;;5014134;28;20191;-83
2021/09/08 09:34:21;;;;;;;4.95;4.57;;;;;;;;;;5013641;28;20225;-83
2021/09/08 09:36:53;;;;;;;4.90;4.50;;;;;;;;;;5013446;28;20211;-83
2021/09/08 09:39:21;;;;;;;4.47;4.07;;;;;;;;;;5013052;28;20583;-83
2021/09/08 09:41:49;;;;;;;4.40;4.10;;;;;;;;;;5013973;28;20205;-83
2021/09/08 09:44:17;;;;;;;5.07;4.68;;;;;;;;;;5013542;28;20605;-83
2021/09/08 09:46:46;;;;;;;4.60;4.20;;;;;;;;;;5013183;28;20203;-83
2021/09/08 09:49:16;;;;;;;4.95;4.45;;;;;;;;;;5013582;28;20190;-83
2021/09/08 09:51:46;;;;;;;4.95;4.55;;;;;;;;;;5014100;28;20214;-83
2021/09/08 09:54:18;;;;;;;4.75;4.40;;;;;;;;;;5017041;28;20229;-83
2021/09/08 09:56:45;;;;;;;4.57;4.18;;;;;;;;;;5017719;28;20226;-83
2021/09/08 09:59:13;;;;;;;4.97;4.57;;;;;;;;;;5013776;28;20203;-84
2021/09/08 10:01:41;;;;;;;5.00;4.50;;;;;;;;;;5017349;28;20195;-83
2021/09/08 10:04:10;;;;;;;3.88;3.58;;;;;;;;;;5016950;28;20229;-83
2021/09/08 10:06:39;;;;;;;4.22;3.88;;;;;;;;;;5016901;28;20191;-84
2021/09/08 10:09:07;;;;;;;4.75;4.38;;;;;;;;;;5017353;28;20188;-84
2021/09/08 10:11:36;;;;;;;4.45;4.07;;;;;;;;;;5016600;28;20183;-83
2021/09/08 10:14:09;;;;;;;5.65;5.07;;;;;;;;;;5030341;28;20634;-83
2021/09/08 10:16:36;;;;;;;4.45;4.15;;;;;;;;;;5036228;28;20679;-83
2021/09/08 10:19:05;;;;;;;4.20;3.85;;;;;;;;;;5036273;28;20552;-83
2021/09/08 10:21:33;;;;;;;4.05;3.75;;;;;;;;;;5037166;28;20189;-84
2021/09/08 10:24:04;;;;;;;4.13;3.83;;;;;;;;;;5035965;28;20501;-83
2021/09/08 10:26:35;;;;;;;4.13;3.60;;;;;;;;;;5036603;28;20210;-83
2021/09/08 10:29:08;;;;;;;4.30;4.00;;;;;;;;;;5035944;28;20659;-83
2021/09/08 10:31:38;;;;;;;4.05;3.75;;;;;;;;;;5036408;28;20257;-83
2021/09/08 10:34:06;;;;;;;5.15;4.75;;;;;;;;;;5036512;28;20329;-83
2021/09/08 10:36:35;;;;;;;4.53;4.22;;;;;;;;;;5036202;28;20222;-84
2021/09/08 10:39:10;;;;;;;5.00;4.53;;;;;;;;;;5036337;28;20190;-84
2021/09/08 10:41:41;;;;;;;4.95;4.55;;;;;;;;;;5035609;28;20653;-84
2021/09/08 10:44:08;;;;;;;3.92;3.63;;;;;;;;;;5035756;28;20585;-83
2021/09/08 10:46:54;;;;;;;5.63;5.13;;;;;;;;;;5036032;28;20567;-83
2021/09/08 10:49:53;;;;;;;4.00;3.70;;;;;;;;;;5035745;28;20183;-83
2021/09/08 10:52:44;;;;;;;4.18;3.88;;;;;;;;;;5035638;28;20250;-84
2021/09/08 10:55:24;;;;;;;4.25;3.85;;;;;;;;;;5035825;28;20921;-83
2021/09/08 10:58:01;;;;;;;4.13;3.75;;;;;;;;;;5035521;28;20198;-84
2021/09/08 11:00:38;;;;;;;4.47;4.07;;;;;;;;;;5035566;28;20206;-84
2021/09/08 11:03:27;;;;;;;4.60;4.20;;;;;;;;;;5036010;28;20625;-84
2021/09/08 11:05:57;;;;;;;6.95;6.28;;;;;;;;;;5035678;28;20289;-83
2021/09/08 11:08:28;;;;;;;4.68;4.28;;;;;;;;;;5035692;28;20188;-83
2021/09/08 11:11:16;;;;;;;5.50;5.03;;;;;;;;;;5034342;28;20550;-83
2021/09/08 11:13:44;;;;;;;4.38;4.07;;;;;;;;;;5035445;28;20182;-84
2021/09/08 11:16:21;;;;;;;4.63;4.25;;;;;;;;;;5035379;28;20214;-83
2021/09/08 11:18:48;;;;;;;4.75;4.35;;;;;;;;;;5036093;28;20191;-84
2021/09/08 11:21:16;;;;;;;5.50;5.00;;;;;;;;;;5035359;28;20569;-84
2021/09/08 11:23:45;;;;;;;4.65;4.35;;;;;;;;;;5035874;28;20690;-83
2021/09/08 11:26:15;;;;;;;5.25;4.85;;;;;;;;;;5035395;28;20183;-83
2021/09/08 11:28:42;;;;;;;4.80;4.40;;;;;;;;;;5035795;28;20195;-84
2021/09/08 11:31:17;;;;;;;6.15;5.15;;;;;;;;;;5036055;28;20194;-84
2021/09/08 11:33:45;;;;;;;6.13;5.63;;;;;;;;;;5034930;28;20568;-83
2021/09/08 11:36:18;;;;;;;5.07;4.68;;;;;;;;;;5036011;28;20213;-84
2021/09/08 11:38:48;;;;;;;6.05;5.50;;;;;;;;;;5035224;28;20189;-83
2021/09/08 11:41:19;;;;;;;4.88;4.47;;;;;;;;;;5034543;28;20608;-83
2021/09/08 11:43:49;;;;;;;5.13;4.72;;;;;;;;;;5035630;28;20300;-84
2021/09/08 11:46:19;;;;;;;4.82;4.43;;;;;;;;;;5035009;28;20245;-84
2021/09/08 11:48:50;;;;;;;6.30;4.03;;;;;;;;;;5035354;28;20193;-83
2021/09/08 11:51:20;;;;;;;5.47;5.05;;;;;;;;;;5035567;28;20183;-84
2021/09/08 11:53:49;;;;;;;5.85;5.45;;;;;;;;;;5035030;28;20222;-83
2021/09/08 11:56:21;;;;;;;4.88;4.55;;;;;;;;;;5034926;28;20580;-84
2021/09/08 11:58:52;;;;;;;5.65;5.20;;;;;;;;;;5034805;28;20202;-85
2021/09/08 12:01:20;;;;;;;5.03;4.63;;;;;;;;;;5035047;28;20190;-83
2021/09/08 12:03:51;;;;;;;4.93;4.53;;;;;;;;;;5035260;28;20230;-84
2021/09/08 12:06:20;;;;;;;4.13;3.83;;;;;;;;;;5034773;28;20186;-83
2021/09/08 12:08:50;;;;;;;3.20;3.00;;;;;;;;;;5035770;28;20584;-86
2021/09/08 12:11:42;;;;;;;4.32;3.92;;;;;;;;;;5035405;28;20174;-83
2021/09/08 12:14:41;;;;;;;4.45;4.07;;;;;;;;;;5034562;28;20227;-84
2021/09/08 12:17:24;;;;;;;5.53;5.10;;;;;;;;;;5026752;28;20222;-84
2021/09/08 12:20:04;;;;;;;4.15;3.85;;;;;;;;;;5035137;28;20174;-83
2021/09/08 12:22:35;;;;;;;4.72;4.32;;;;;;;;;;5034950;28;20260;-84
2021/09/08 12:25:06;;;;;;;4.85;4.45;;;;;;;;;;5034305;28;20325;-84
2021/09/08 12:27:37;;;;;;;4.97;4.57;;;;;;;;;;5035380;28;20191;-84
2021/09/08 12:30:10;;;;;;;5.07;4.68;;;;;;;;;;5034479;28;20186;-84
2021/09/08 12:32:47;;;;;;;4.00;3.70;;;;;;;;;;5034769;28;20289;-85
2021/09/08 12:35:38;;;;;;;4.03;3.72;;;;;;;;;;5034827;28;20340;-84
2021/09/08 12:38:22;;;;;;;4.28;3.97;;;;;;;;;;5034674;28;20222;-86
2021/09/08 12:41:13;;;;;;;3.72;3.42;;;;;;;;;;5034854;28;20641;-85
2021/09/08 12:43:44;;;;;;;3.90;3.60;;;;;;;;;;5034791;28;20660;-84
2021/09/08 12:46:12;;;;;;;3.80;3.50;;;;;;;;;;5034746;28;20629;-83
2021/09/08 12:48:42;;;;;;;3.60;3.30;;;;;;;;;;5033803;28;20289;-84
2021/09/08 12:51:11;;;;;;;4.18;3.88;;;;;;;;;;5034589;28;20641;-84
2021/09/08 12:53:40;;;;;;;3.92;3.63;;;;;;;;;;5034751;28;20202;-85
2021/09/08 12:56:10;;;;;;;4.22;3.92;;;;;;;;;;5034829;28;20252;-82
2021/09/08 12:58:38;;;;;;;3.88;3.58;;;;;;;;;;5034622;28;20695;-83
2021/09/08 13:01:06;;;;;;;3.55;3.25;;;;;;;;;;5034086;28;20179;-83
2021/09/08 13:03:34;;;;;;;3.15;2.95;;;;;;;;;;5033315;28;20178;-83
2021/09/08 13:06:02;;;;;;;4.70;4.40;;;;;;;;;;5034578;28;20202;-84
2021/09/08 13:08:29;;;;;;;4.13;3.83;;;;;;;;;;5035001;28;20187;-84
2021/09/08 13:10:58;;;;;;;4.35;3.95;;;;;;;;;;5034608;28;20183;-83
2021/09/08 13:13:25;;;;;;;3.58;3.38;;;;;;;;;;5034933;28;20604;-85
2021/09/08 13:15:53;;;;;;;3.05;2.85;;;;;;;;;;5033820;28;20202;-85
2021/09/08 13:18:23;;;;;;;3.30;3.10;;;;;;;;;;5033412;28;20206;-85
2021/09/08 13:20:50;;;;;;;3.35;3.10;;;;;;;;;;5033863;28;20637;-84
2021/09/08 13:23:19;;;;;;;3.88;3.58;;;;;;;;;;5033621;28;20629;-85
2021/09/08 13:25:47;;;;;;;3.97;3.67;;;;;;;;;;5035120;28;20230;-83
2021/09/08 13:28:14;;;;;;;3.15;2.95;;;;;;;;;;5035276;28;20707;-83
2021/09/08 13:30:42;;;;;;;4.28;3.97;;;;;;;;;;5035761;28;20182;-83
2021/09/08 13:33:12;;;;;;;4.03;3.72;;;;;;;;;;5036138;28;20186;-83
2021/09/08 13:35:41;;;;;;;3.67;3.38;;;;;;;;;;5039343;28;20226;-85
2021/09/08 13:38:09;;;;;;;3.80;3.50;;;;;;;;;;5033532;28;20685;-85
2021/09/08 13:40:36;;;;;;;2.80;2.60;;;;;;;;;;5033092;28;20189;-85
2021/09/08 13:43:04;;;;;;;4.57;4.10;;;;;;;;;;5033519;28;20193;-83
2021/09/08 13:45:32;;;;;;;4.30;3.97;;;;;;;;;;5033227;28;20568;-85
2021/09/08 13:48:01;;;;;;;4.15;3.78;;;;;;;;;;5033038;28;20553;-85
2021/09/08 13:50:29;;;;;;;3.55;3.25;;;;;;;;;;5032849;28;20187;-85
2021/09/08 13:52:58;;;;;;;4.15;3.85;;;;;;;;;;5033033;28;20187;-85
2021/09/08 13:55:25;;;;;;;3.47;3.17;;;;;;;;;;5032907;28;20704;-85
2021/09/08 13:57:54;;;;;;;3.08;2.88;;;;;;;;;;5032736;28;20214;-84
2021/09/08 14:00:22;;;;;;;3.45;3.15;;;;;;;;;;5032380;28;20200;-83
2021/09/08 14:02:50;;;;;;;3.45;3.15;;;;;;;;;;5032177;28;20178;-83
2021/09/08 14:05:17;;;;;;;3.75;3.45;;;;;;;;;;5032309;28;20218;-83
2021/09/08 14:07:45;;;;;;;3.33;3.03;;;;;;;;;;5032299;28;20186;-84
2021/09/08 14:10:13;;;;;;;3.67;3.38;;;;;;;;;;5032600;28;20633;-82
2021/09/08 14:12:41;;;;;;;3.85;3.50;;;;;;;;;;5031889;28;20202;-83
2021/09/08 14:15:11;;;;;;;4.03;3.72;;;;;;;;;;5031789;28;20225;-83
2021/09/08 14:17:40;;;;;;;3.50;3.20;;;;;;;;;;5032326;28;20222;-83
2021/09/08 14:20:09;;;;;;;2.55;2.35;;;;;;;;;;5032366;28;20230;-83
2021/09/08 14:22:36;;;;;;;3.00;2.80;;;;;;;;;;5032701;28;20199;-83
2021/09/08 14:25:05;;;;;;;3.40;3.10;;;;;;;;;;5021977;28;20241;-82
2021/09/08 14:27:34;;;;;;;3.45;3.17;;;;;;;;;;5011959;28;20814;-83
2021/09/08 14:30:02;;;;;;;3.45;3.08;;;;;;;;;;5012035;28;20646;-82
2021/09/08 14:32:29;;;;;;;3.33;3.13;;;;;;;;;;5012043;28;20199;-82
2021/09/08 14:34:57;;;;;;;4.82;4.40;;;;;;;;;;5024075;28;20218;-82
2021/09/08 14:37:24;;;;;;;3.65;3.35;;;;;;;;;;5032015;28;20203;-82
2021/09/08 14:39:52;;;;;;;3.35;3.05;;;;;;;;;;5032176;28;20194;-82
2021/09/08 14:42:19;;;;;;;3.63;3.33;;;;;;;;;;5032516;28;20191;-82
2021/09/08 14:44:48;;;;;;;3.88;3.53;;;;;;;;;;4993620;28;20218;-83
2021/09/08 14:47:16;;;;;;;3.05;2.85;;;;;;;;;;4996374;28;20413;-82
2021/09/08 14:49:44;;;;;;;2.80;2.60;;;;;;;;;;4996740;28;20184;-82
2021/09/08 14:52:11;;;;;;;2.97;2.70;;;;;;;;;;5027513;28;20199;-82
2021/09/08 14:54:40;;;;;;;3.90;3.60;;;;;;;;;;5035348;28;20228;-83
2021/09/08 14:57:07;;;;;;;4.35;4.03;;;;;;;;;;5035303;28;20202;-83
2021/09/08 14:59:35;;;;;;;4.53;4.13;;;;;;;;;;5034898;28;20713;-83
2021/09/08 15:02:07;;;;;;;4.07;3.60;;;;;;;;;;5035228;28;20211;-82
2021/09/08 15:04:36;;;;;;;4.05;3.63;;;;;;;;;;5035064;28;20229;-82
2021/09/08 15:07:04;;;;;;;3.63;3.33;;;;;;;;;;5035217;28;20574;-82